Time;durP1;ratioP1;P1;durP2;ratioP2;P2;SDS_P1;SDS_P2;PMS_P1;PMS_P2;Temp;Humidity;BMP_temperature;BMP_pressure;BME280_temperature;BME280_humidity;BME280_pressure;Samples;Min_cycle;Max_cycle;Signal;HPM_P1;HPM_P2
2022/04/20 00:00:41;;;;;;;3.67;2.13;;;11.20;99.90;;;;;;5052449;28;20198;-79
2022/04/20 00:03:07;;;;;;;3.17;2.10;;;11.10;99.90;;;;;;5052211;28;20524;-80
2022/04/20 00:05:33;;;;;;;4.33;2.43;;;11.10;99.90;;;;;;5034276;28;20464;-80
2022/04/20 00:08:06;;;;;;;3.90;1.93;;;11.10;99.90;;;;;;5033369;28;20255;-81
2022/04/20 00:10:32;;;;;;;3.17;2.33;;;11.00;99.90;;;;;;5052240;28;20415;-80
2022/04/20 00:12:58;;;;;;;2.90;1.93;;;11.00;99.90;;;;;;5052138;28;20829;-80
2022/04/20 00:15:24;;;;;;;4.10;2.00;;;10.90;99.90;;;;;;5051938;28;20465;-81
2022/04/20 00:17:50;;;;;;;3.97;1.93;;;10.90;99.90;;;;;;5033238;28;20504;-80
2022/04/20 00:20:17;;;;;;;3.83;2.10;;;10.90;99.90;;;;;;5034010;28;20440;-78
2022/04/20 00:22:42;;;;;;;3.50;2.23;;;10.80;99.90;;;;;;5052051;28;20429;-79
2022/04/20 00:25:08;;;;;;;3.37;1.67;;;10.80;99.90;;;;;;5034207;28;20867;-80
2022/04/20 00:27:35;;;;;;;5.90;2.30;;;10.80;99.90;;;;;;5051338;28;20195;-79
2022/04/20 00:30:02;;;;;;;4.70;2.33;;;10.70;99.90;;;;;;5051882;28;20168;-79
2022/04/20 00:32:29;;;;;;;2.90;1.80;;;10.70;99.90;;;;;;5033969;28;20440;-80
2022/04/20 00:34:55;;;;;;;3.90;2.13;;;10.70;99.90;;;;;;5051769;28;20462;-79
2022/04/20 00:37:21;;;;;;;2.40;1.30;;;10.70;99.90;;;;;;5050835;28;20422;-79
2022/04/20 00:39:46;;;;;;;5.77;2.00;;;10.60;99.90;;;;;;5033793;28;20931;-79
2022/04/20 00:42:12;;;;;;;3.40;1.97;;;10.60;99.90;;;;;;5033910;28;20179;-79
2022/04/20 00:44:40;;;;;;;2.80;1.73;;;10.60;99.90;;;;;;5051620;28;20260;-79
2022/04/20 00:47:07;;;;;;;3.63;1.97;;;10.50;99.90;;;;;;5050770;28;20529;-79
2022/04/20 00:49:35;;;;;;;4.03;2.17;;;10.50;99.90;;;;;;5051633;28;20455;-79
2022/04/20 00:52:02;;;;;;;3.10;2.00;;;10.50;99.90;;;;;;5051595;28;20411;-79
2022/04/20 00:54:28;;;;;;;4.30;1.90;;;10.40;99.90;;;;;;5051577;28;20419;-79
2022/04/20 00:56:54;;;;;;;3.63;2.23;;;10.40;99.90;;;;;;5050713;28;20507;-79
2022/04/20 00:59:23;;;;;;;9.00;2.63;;;10.30;99.90;;;;;;5051567;28;20674;-79
2022/04/20 01:01:50;;;;;;;4.43;2.30;;;10.30;99.90;;;;;;5033617;28;20647;-79
2022/04/20 01:04:16;;;;;;;2.93;1.83;;;10.20;99.90;;;;;;5051472;28;20414;-79
2022/04/20 01:06:42;;;;;;;3.33;2.03;;;10.20;99.90;;;;;;5054120;28;20413;-79
2022/04/20 01:09:08;;;;;;;3.13;1.90;;;10.20;99.90;;;;;;5055519;28;20448;-79
2022/04/20 01:11:34;;;;;;;3.50;1.70;;;10.10;99.90;;;;;;5055379;28;20422;-79
2022/04/20 01:14:00;;;;;;;7.70;1.60;;;10.10;99.90;;;;;;5055497;28;20468;-78
2022/04/20 01:16:25;;;;;;;3.60;1.97;;;10.00;99.90;;;;;;5054850;28;20191;-77
2022/04/20 01:18:53;;;;;;;3.00;2.07;;;10.00;99.90;;;;;;5054687;28;20215;-79
2022/04/20 01:21:19;;;;;;;4.00;2.20;;;9.90;99.90;;;;;;5055367;28;20535;-79
2022/04/20 01:23:44;;;;;;;3.93;2.10;;;9.90;99.90;;;;;;5055208;28;20410;-79
2022/04/20 01:26:11;;;;;;;3.57;2.00;;;9.90;99.90;;;;;;5055014;28;20832;-79
2022/04/20 01:28:38;;;;;;;2.40;1.43;;;9.90;99.90;;;;;;5054421;28;20192;-79
2022/04/20 01:31:04;;;;;;;4.40;1.80;;;9.80;99.90;;;;;;5055246;28;20562;-80
2022/04/20 01:33:30;;;;;;;2.83;1.70;;;9.80;99.90;;;;;;5054975;28;21231;-78
2022/04/20 01:35:56;;;;;;;4.27;2.33;;;9.70;99.90;;;;;;5054964;28;20418;-79
2022/04/20 01:38:22;;;;;;;3.70;2.17;;;9.70;99.90;;;;;;5054682;28;20434;-79
2022/04/20 01:40:48;;;;;;;2.90;2.00;;;9.70;99.90;;;;;;5055357;28;20183;-79
2022/04/20 01:43:13;;;;;;;3.33;2.30;;;9.60;99.90;;;;;;5055216;28;20189;-79
2022/04/20 01:45:39;;;;;;;4.67;2.60;;;9.60;99.90;;;;;;5054914;28;20211;-79
2022/04/20 01:48:06;;;;;;;5.90;2.20;;;9.60;99.90;;;;;;5036327;28;20188;-78
2022/04/20 01:50:31;;;;;;;3.67;1.90;;;9.50;99.90;;;;;;5054673;28;20281;-79
2022/04/20 01:52:57;;;;;;;3.57;2.07;;;9.50;99.90;;;;;;5054969;28;20864;-79
2022/04/20 01:55:22;;;;;;;3.20;2.10;;;9.40;99.90;;;;;;5054992;28;20176;-79
2022/04/20 01:57:48;;;;;;;4.20;1.97;;;9.40;99.90;;;;;;5053936;28;20199;-80
2022/04/20 02:00:16;;;;;;;5.30;2.40;;;9.40;99.90;;;;;;5054767;28;20565;-79
2022/04/20 02:02:42;;;;;;;3.20;2.30;;;9.40;99.90;;;;;;5036567;28;20210;-79
2022/04/20 02:05:10;;;;;;;2.73;1.67;;;9.30;99.90;;;;;;5036446;28;20461;-79
2022/04/20 02:07:36;;;;;;;3.90;2.07;;;9.30;99.90;;;;;;5053714;28;20841;-79
2022/04/20 02:10:04;;;;;;;3.83;2.03;;;9.30;99.90;;;;;;5036693;28;20483;-80
2022/04/20 02:12:30;;;;;;;4.20;2.20;;;9.20;99.90;;;;;;5054174;28;20418;-79
2022/04/20 02:14:56;;;;;;;3.70;2.07;;;9.20;99.90;;;;;;5054298;28;20410;-79
2022/04/20 02:17:22;;;;;;;3.23;2.00;;;9.10;99.90;;;;;;5051828;28;20434;-79
2022/04/20 02:19:48;;;;;;;2.87;1.73;;;9.10;99.90;;;;;;5054292;28;20423;-78
2022/04/20 02:22:14;;;;;;;4.83;2.77;;;9.10;99.90;;;;;;5036198;28;20180;-79
2022/04/20 02:24:39;;;;;;;3.70;1.93;;;9.00;99.90;;;;;;5053901;28;20464;-79
2022/04/20 02:27:05;;;;;;;3.27;2.17;;;9.00;99.90;;;;;;5053059;28;20608;-80
2022/04/20 02:29:31;;;;;;;3.57;2.57;;;9.00;99.90;;;;;;5036090;28;20180;-79
2022/04/20 02:31:56;;;;;;;3.53;2.20;;;8.90;99.90;;;;;;5036042;28;20764;-79
2022/04/20 02:34:22;;;;;;;3.30;2.33;;;8.90;99.90;;;;;;5053935;28;20178;-78
2022/04/20 02:36:48;;;;;;;4.37;2.30;;;8.80;99.90;;;;;;5034944;28;20206;-79
2022/04/20 02:39:14;;;;;;;3.70;2.20;;;8.80;99.90;;;;;;5035791;28;20236;-78
2022/04/20 02:41:41;;;;;;;6.33;2.80;;;8.60;99.90;;;;;;5053845;28;21001;-80
2022/04/20 02:44:07;;;;;;;4.73;2.40;;;8.50;99.90;;;;;;5053684;28;20209;-80
2022/04/20 02:46:34;;;;;;;4.97;2.10;;;8.50;99.90;;;;;;5034868;28;20457;-79
2022/04/20 02:48:59;;;;;;;3.23;2.00;;;8.50;99.90;;;;;;5035655;28;20442;-79
2022/04/20 02:51:25;;;;;;;4.20;2.57;;;8.40;99.90;;;;;;5035709;28;20468;-79
2022/04/20 02:53:50;;;;;;;3.90;2.50;;;8.40;99.90;;;;;;5053435;28;20206;-79
2022/04/20 02:56:16;;;;;;;3.57;1.90;;;8.40;99.90;;;;;;5035558;28;20218;-79
2022/04/20 02:58:41;;;;;;;2.73;1.70;;;8.40;99.90;;;;;;5034784;28;20203;-79
2022/04/20 03:01:07;;;;;;;3.37;2.00;;;8.30;99.90;;;;;;5053471;28;20194;-79
2022/04/20 03:03:33;;;;;;;3.47;2.47;;;8.30;99.90;;;;;;5053385;28;20190;-78
2022/04/20 03:05:59;;;;;;;3.70;2.67;;;8.30;99.90;;;;;;5035174;28;20222;-79
2022/04/20 03:08:25;;;;;;;3.23;2.10;;;8.30;99.90;;;;;;5052495;28;20438;-79
2022/04/20 03:10:51;;;;;;;4.77;2.20;;;8.30;99.90;;;;;;5053227;28;20173;-80
2022/04/20 03:13:18;;;;;;;4.90;2.13;;;8.30;99.90;;;;;;5053370;28;20561;-79
2022/04/20 03:15:44;;;;;;;3.60;2.30;;;8.20;99.90;;;;;;5052898;28;20499;-79
2022/04/20 03:18:09;;;;;;;3.23;2.10;;;8.20;99.90;;;;;;5052210;28;20555;-79
2022/04/20 03:20:36;;;;;;;4.57;2.60;;;8.20;99.90;;;;;;5053059;28;20793;-78
2022/04/20 03:23:02;;;;;;;3.40;2.40;;;8.20;99.90;;;;;;5053026;28;20188;-79
2022/04/20 03:25:28;;;;;;;3.67;2.33;;;8.20;99.90;;;;;;5052676;28;20576;-79
2022/04/20 03:27:54;;;;;;;3.07;2.20;;;8.10;99.90;;;;;;5051737;28;20477;-79
2022/04/20 03:30:20;;;;;;;3.47;2.43;;;8.10;99.90;;;;;;5035094;28;20618;-78
2022/04/20 03:32:46;;;;;;;3.30;2.30;;;8.10;99.90;;;;;;5052836;28;20183;-78
2022/04/20 03:35:11;;;;;;;4.33;2.43;;;8.10;99.90;;;;;;5052674;28;20446;-79
2022/04/20 03:37:37;;;;;;;3.30;2.33;;;8.10;99.90;;;;;;5051888;28;20454;-79
2022/04/20 03:40:04;;;;;;;3.97;2.10;;;8.00;99.90;;;;;;5034798;28;20181;-79
2022/04/20 03:42:30;;;;;;;3.90;2.30;;;8.00;99.90;;;;;;5052448;28;20182;-79
2022/04/20 03:44:55;;;;;;;3.80;2.47;;;7.90;99.90;;;;;;5034742;28;20465;-79
2022/04/20 03:47:21;;;;;;;5.03;2.90;;;7.90;99.90;;;;;;5051698;28;20198;-79
2022/04/20 03:49:46;;;;;;;5.30;2.87;;;7.90;99.90;;;;;;5052531;28;20182;-79
2022/04/20 03:52:12;;;;;;;3.83;2.40;;;7.90;99.90;;;;;;5034541;28;20211;-79
2022/04/20 03:54:37;;;;;;;3.60;2.30;;;7.90;99.90;;;;;;5052513;28;20179;-79
2022/04/20 03:57:03;;;;;;;4.10;2.80;;;7.90;99.90;;;;;;5033565;28;20276;-79
2022/04/20 03:59:34;;;;;;;5.60;2.37;;;7.80;99.90;;;;;;5052351;28;20623;-79
2022/04/20 04:01:59;;;;;;;5.67;2.67;;;7.90;99.90;;;;;;5052695;28;20401;-79
2022/04/20 04:04:25;;;;;;;4.70;2.37;;;7.80;99.90;;;;;;5034314;28;20414;-79
2022/04/20 04:06:51;;;;;;;4.03;2.50;;;7.80;99.90;;;;;;5017200;28;20464;-79
2022/04/20 04:09:17;;;;;;;5.80;2.90;;;7.70;99.90;;;;;;5052008;28;20697;-79
2022/04/20 04:11:43;;;;;;;4.30;2.67;;;7.70;99.90;;;;;;5052163;28;20412;-79
2022/04/20 04:14:08;;;;;;;4.07;2.50;;;7.70;99.90;;;;;;5052070;28;20176;-79
2022/04/20 04:16:36;;;;;;;3.50;2.50;;;7.70;99.90;;;;;;5051334;28;20538;-79
2022/04/20 04:19:08;;;;;;;4.37;2.80;;;7.70;99.90;;;;;;5051916;28;20637;-79
2022/04/20 04:21:38;;;;;;;4.17;2.43;;;7.70;99.90;;;;;;5051979;28;20419;-79
2022/04/20 04:24:08;;;;;;;4.10;2.77;;;7.70;99.90;;;;;;5033969;28;20848;-79
2022/04/20 04:26:34;;;;;;;3.77;2.50;;;7.60;99.90;;;;;;5051027;28;20559;-79
2022/04/20 04:29:00;;;;;;;3.43;2.20;;;7.60;99.90;;;;;;5034058;28;20879;-80
2022/04/20 04:31:26;;;;;;;4.20;2.30;;;7.60;99.90;;;;;;5051892;28;20464;-79
2022/04/20 04:33:51;;;;;;;3.83;2.53;;;7.60;99.90;;;;;;5051835;28;20585;-79
2022/04/20 04:36:17;;;;;;;3.50;2.60;;;7.50;99.90;;;;;;5051640;28;20431;-78
2022/04/20 04:38:43;;;;;;;4.70;2.50;;;7.60;99.90;;;;;;5051100;28;20205;-79
2022/04/20 04:41:09;;;;;;;3.80;2.50;;;7.50;99.90;;;;;;5050876;28;20208;-79
2022/04/20 04:43:35;;;;;;;5.03;3.00;;;7.50;99.90;;;;;;5051935;28;20417;-79
2022/04/20 04:48:48;;;;;;;3.10;2.40;;;7.50;99.90;;;;;;5051077;28;20210;-79
2022/04/20 04:51:14;;;;;;;3.63;2.40;;;7.50;99.90;;;;;;5051492;28;20415;-79
2022/04/20 04:53:40;;;;;;;3.80;2.50;;;7.50;99.90;;;;;;5033698;28;20913;-79
2022/04/20 04:56:06;;;;;;;4.07;2.53;;;7.60;99.90;;;;;;5051388;28;20420;-78
2022/04/20 04:58:31;;;;;;;3.97;2.53;;;7.60;99.90;;;;;;5033181;28;20351;-79
2022/04/20 05:00:58;;;;;;;3.80;2.33;;;7.60;99.90;;;;;;5033788;28;20230;-79
2022/04/20 05:03:24;;;;;;;4.40;2.93;;;7.70;99.90;;;;;;5051630;28;20794;-79
2022/04/20 05:05:50;;;;;;;3.57;2.47;;;7.70;99.90;;;;;;5051273;28;20462;-79
2022/04/20 05:08:16;;;;;;;3.77;2.23;;;7.80;99.90;;;;;;5050794;28;20437;-79
2022/04/20 05:10:41;;;;;;;5.17;2.80;;;7.80;99.90;;;;;;5051603;28;20496;-79
2022/04/20 05:13:07;;;;;;;4.50;2.67;;;7.80;99.90;;;;;;5051479;28;20186;-79
2022/04/20 05:15:34;;;;;;;4.43;2.90;;;7.80;99.90;;;;;;5051340;28;20175;-78
2022/04/20 05:18:00;;;;;;;4.70;2.90;;;7.90;99.90;;;;;;5087129;23;20223;-78
2022/04/20 05:20:26;;;;;;;4.53;2.50;;;8.00;99.90;;;;;;5112150;28;20501;-78
2022/04/20 05:22:52;;;;;;;5.83;2.50;;;8.00;99.90;;;;;;5119459;28;20418;-77
2022/04/20 05:25:18;;;;;;;4.43;2.60;;;8.10;99.90;;;;;;5119136;28;20494;-78
2022/04/20 05:27:47;;;;;;;3.80;2.53;;;8.20;99.90;;;;;;5119012;28;20493;-78
2022/04/20 05:30:14;;;;;;;4.40;2.77;;;8.20;99.90;;;;;;5118651;28;20796;-78
2022/04/20 05:32:41;;;;;;;5.10;3.10;;;8.30;99.90;;;;;;5118931;28;20467;-79
2022/04/20 05:35:07;;;;;;;8.07;3.17;;;8.30;99.90;;;;;;5119113;28;20425;-79
2022/04/20 05:43:02;;;;;;;4.13;2.47;;;8.40;99.90;;;;;;5137573;28;20439;-78
2022/04/20 05:45:28;;;;;;;5.83;3.27;;;8.50;99.90;;;;;;5119018;28;20453;-78
2022/04/20 05:47:54;;;;;;;4.10;2.30;;;8.50;99.90;;;;;;5120026;28;20414;-78
2022/04/20 05:50:19;;;;;;;3.93;2.70;;;8.60;99.90;;;;;;5119986;28;20657;-78
2022/04/20 05:52:45;;;;;;;5.03;3.27;;;8.70;99.90;;;;;;5123126;27;20183;-78
2022/04/20 05:55:11;;;;;;;4.80;3.20;;;8.80;99.90;;;;;;5122660;27;20184;-79
2022/04/20 05:57:37;;;;;;;6.23;2.90;;;8.90;99.90;;;;;;5122889;27;20425;-78
2022/04/20 06:00:07;;;;;;;4.27;2.80;;;9.00;99.90;;;;;;5122196;27;20197;-78
2022/04/20 06:02:36;;;;;;;4.63;2.67;;;9.10;99.90;;;;;;5122089;27;20176;-79
2022/04/20 06:05:02;;;;;;;4.13;2.97;;;9.30;99.90;;;;;;5120340;27;20454;-78
2022/04/20 06:07:29;;;;;;;4.90;2.90;;;9.40;99.90;;;;;;5114138;27;20443;-77
2022/04/20 06:09:55;;;;;;;4.33;3.07;;;9.50;99.90;;;;;;5119297;27;20502;-79
2022/04/20 06:12:21;;;;;;;3.93;2.97;;;9.70;99.90;;;;;;5119406;27;20897;-79
2022/04/20 06:14:47;;;;;;;6.67;3.07;;;9.80;99.90;;;;;;5120000;27;20507;-78
2022/04/20 06:17:13;;;;;;;4.40;2.73;;;9.90;99.90;;;;;;5118909;27;20594;-78
2022/04/20 06:19:39;;;;;;;5.37;3.03;;;10.10;99.90;;;;;;5118091;27;20522;-78
2022/04/20 06:22:05;;;;;;;4.27;2.57;;;10.20;99.90;;;;;;5117975;27;20489;-81
2022/04/20 06:24:31;;;;;;;3.80;2.67;;;10.30;99.90;;;;;;5116204;27;20179;-81
2022/04/20 06:26:57;;;;;;;4.40;2.93;;;10.40;99.90;;;;;;5116277;27;20201;-82
2022/04/20 06:29:22;;;;;;;4.47;3.07;;;10.60;99.90;;;;;;5117027;27;20272;-81
2022/04/20 06:31:48;;;;;;;7.17;2.70;;;10.70;99.90;;;;;;5113108;28;20184;-81
2022/04/20 06:34:14;;;;;;;4.60;3.07;;;10.90;99.90;;;;;;5113326;28;20718;-81
2022/04/20 06:36:40;;;;;;;4.57;2.83;;;10.90;99.90;;;;;;5112887;28;20194;-81
2022/04/20 06:39:06;;;;;;;4.33;2.90;;;11.10;99.90;;;;;;5113088;28;20205;-81
2022/04/20 06:41:31;;;;;;;4.47;2.77;;;11.20;99.90;;;;;;5113192;28;20204;-82
2022/04/20 06:43:57;;;;;;;4.27;2.60;;;11.40;99.90;;;;;;5113030;28;20419;-81
2022/04/20 06:46:23;;;;;;;3.90;2.40;;;11.40;99.90;;;;;;5112642;28;20209;-80
2022/04/20 06:48:49;;;;;;;3.27;2.53;;;11.50;99.90;;;;;;5112996;28;20199;-80
2022/04/20 06:51:15;;;;;;;5.67;2.70;;;11.70;99.90;;;;;;5113230;28;20423;-80
2022/04/20 06:59:10;;;;;;;3.73;2.00;;;11.90;99.90;;;;;;5131580;27;21038;-82
2022/04/20 07:01:38;;;;;;;3.33;2.10;;;12.10;99.90;;;;;;5096467;28;20420;-80
2022/04/20 07:04:05;;;;;;;2.93;2.00;;;12.30;99.90;;;;;;5095579;28;20430;-81
2022/04/20 07:06:31;;;;;;;4.67;2.40;;;12.40;99.90;;;;;;5096372;28;20604;-80
2022/04/20 07:08:57;;;;;;;3.83;2.30;;;12.50;99.90;;;;;;5100235;28;20415;-79
2022/04/20 07:11:23;;;;;;;3.20;1.87;;;12.50;99.90;;;;;;5102017;27;20422;-80
2022/04/20 07:13:50;;;;;;;4.20;2.40;;;12.60;99.90;;;;;;5115764;28;20226;-80
2022/04/20 07:16:16;;;;;;;3.60;2.30;;;12.70;99.90;;;;;;5104605;28;20205;-78
2022/04/20 07:18:42;;;;;;;3.80;2.07;;;12.80;99.90;;;;;;5116330;28;20439;-81
2022/04/20 07:21:07;;;;;;;2.97;1.90;;;12.90;99.90;;;;;;5116628;28;20488;-82
2022/04/20 07:23:33;;;;;;;8.10;2.30;;;13.00;99.90;;;;;;5116867;28;20213;-80
2022/04/20 07:25:59;;;;;;;5.30;2.23;;;13.00;99.90;;;;;;5115711;28;20213;-80
2022/04/20 07:28:24;;;;;;;4.37;2.07;;;13.10;99.90;;;;;;5115338;28;20178;-80
2022/04/20 07:30:50;;;;;;;3.10;2.10;;;13.30;99.90;;;;;;5115809;28;20178;-80
2022/04/20 07:33:16;;;;;;;4.00;2.00;;;13.40;99.90;;;;;;5116076;28;20181;-81
2022/04/20 07:35:46;;;;;;;3.53;2.13;;;13.50;99.40;;;;;;5098481;28;20208;-79
2022/04/20 07:38:12;;;;;;;4.20;1.97;;;13.60;98.90;;;;;;5115742;28;20428;-80
2022/04/20 07:40:38;;;;;;;3.47;2.00;;;13.70;96.20;;;;;;5098049;28;20442;-81
2022/04/20 07:43:04;;;;;;;4.00;2.07;;;13.80;96.00;;;;;;5098363;28;20420;-80
2022/04/20 07:45:30;;;;;;;3.23;2.10;;;13.90;93.70;;;;;;5097580;28;20463;-80
2022/04/20 07:47:58;;;;;;;4.40;1.63;;;13.90;96.70;;;;;;5109084;27;20438;-78
2022/04/20 07:50:24;;;;;;;3.67;2.03;;;14.10;91.80;;;;;;5098751;27;20473;-81
2022/04/20 07:53:00;;;;;;;3.40;2.00;;;14.20;91.50;;;;;;5113895;28;20468;-81
2022/04/20 07:55:31;;;;;;;3.30;1.97;;;14.30;95.70;;;;;;5114019;28;20800;-79
2022/04/20 07:58:00;;;;;;;2.90;1.60;;;14.30;90.10;;;;;;5114226;28;20419;-81
2022/04/20 08:00:27;;;;;;;3.60;1.90;;;14.40;83.40;;;;;;5114774;28;20420;-81
2022/04/20 08:03:08;;;;;;;2.63;1.80;;;14.40;86.60;;;;;;5114116;28;20412;-79
2022/04/20 08:05:34;;;;;;;3.13;2.00;;;14.50;77.70;;;;;;5114258;28;20838;-80
2022/04/20 08:07:59;;;;;;;3.13;1.73;;;14.60;79.30;;;;;;5114606;28;20415;-80
2022/04/20 08:10:25;;;;;;;3.10;2.00;;;14.70;78.40;;;;;;5113627;28;20261;-80
2022/04/20 08:12:51;;;;;;;2.80;1.70;;;14.80;75.10;;;;;;5102305;28;20184;-79
2022/04/20 08:15:17;;;;;;;3.57;1.83;;;14.90;78.40;;;;;;5113722;27;20183;-78
2022/04/20 08:17:42;;;;;;;3.87;2.10;;;14.90;82.80;;;;;;5116868;27;20647;-80
2022/04/20 08:20:09;;;;;;;2.87;2.07;;;15.10;75.70;;;;;;5117146;27;20217;-81
2022/04/20 08:22:43;;;;;;;2.50;1.50;;;15.20;76.50;;;;;;5117953;27;20177;-78
2022/04/20 08:25:10;;;;;;;2.60;1.87;;;15.30;75.50;;;;;;5116966;27;20537;-79
2022/04/20 08:27:37;;;;;;;3.07;1.93;;;15.40;76.00;;;;;;5116963;27;20506;-78
2022/04/20 08:30:04;;;;;;;2.97;1.80;;;15.60;69.00;;;;;;5117778;27;20429;-79
2022/04/20 08:32:30;;;;;;;2.57;1.60;;;16.30;71.20;;;;;;5117695;28;20468;-80
2022/04/20 08:34:56;;;;;;;2.70;1.73;;;17.80;72.70;;;;;;5117554;27;20422;-79
2022/04/20 08:37:22;;;;;;;3.57;2.20;;;19.30;69.70;;;;;;5117485;28;20193;-79
2022/04/20 08:39:48;;;;;;;4.00;2.20;;;20.40;58.90;;;;;;5117937;28;20418;-79
2022/04/20 08:42:17;;;;;;;5.40;2.00;;;22.90;51.40;;;;;;5117752;27;20548;-80
2022/04/20 08:44:47;;;;;;;4.17;1.80;;;23.20;47.10;;;;;;5117296;28;20177;-80
2022/04/20 08:47:23;;;;;;;2.87;1.70;;;24.30;45.90;;;;;;5117138;28;20955;-80
2022/04/20 08:49:50;;;;;;;3.67;1.87;;;25.60;41.90;;;;;;5116970;28;20459;-80
2022/04/20 08:52:39;;;;;;;2.90;1.80;;;25.80;37.50;;;;;;5117027;28;20425;-79
2022/04/20 08:55:12;;;;;;;3.10;1.90;;;26.70;36.00;;;;;;5116815;28;20428;-80
2022/04/20 08:57:39;;;;;;;5.07;2.20;;;27.50;34.70;;;;;;5116985;28;20514;-79
2022/04/20 09:00:09;;;;;;;4.73;2.10;;;28.30;33.10;;;;;;5116499;28;20410;-79
2022/04/20 09:02:35;;;;;;;2.67;1.70;;;29.30;32.30;;;;;;5116144;28;20422;-80
2022/04/20 09:05:03;;;;;;;3.10;1.70;;;30.10;30.60;;;;;;5115923;28;20415;-80
2022/04/20 09:07:31;;;;;;;4.53;2.13;;;31.00;30.00;;;;;;5115400;28;20431;-79
2022/04/20 09:09:57;;;;;;;3.13;2.10;;;31.00;29.20;;;;;;5115757;28;20434;-79
2022/04/20 09:12:23;;;;;;;3.47;2.30;;;31.30;28.40;;;;;;5115953;28;20410;-79
2022/04/20 09:14:51;;;;;;;3.47;1.80;;;31.20;27.40;;;;;;5116382;28;20741;-79
2022/04/20 09:17:22;;;;;;;2.97;1.93;;;31.50;27.60;;;;;;5116658;28;20232;-79
2022/04/20 09:19:53;;;;;;;4.10;1.80;;;31.50;27.30;;;;;;5116611;28;20448;-79
2022/04/20 09:22:21;;;;;;;3.47;2.10;;;32.50;27.20;;;;;;5116044;28;20418;-79
2022/04/20 09:25:07;;;;;;;2.87;1.70;;;33.30;26.70;;;;;;5115944;28;20985;-80
2022/04/20 09:27:39;;;;;;;2.90;1.80;;;34.20;26.70;;;;;;5118022;27;20527;-77
2022/04/20 09:30:10;;;;;;;2.57;1.53;;;34.80;25.60;;;;;;5119421;27;20427;-79
2022/04/20 09:32:40;;;;;;;2.90;1.60;;;34.50;23.60;;;;;;5119918;27;20447;-79
2022/04/20 09:35:12;;;;;;;2.93;1.83;;;33.80;23.70;;;;;;5119699;27;20877;-79
2022/04/20 09:37:38;;;;;;;3.03;1.60;;;33.90;24.90;;;;;;5120996;27;20999;-82
2022/04/20 09:40:10;;;;;;;2.33;1.70;;;34.30;24.80;;;;;;5120238;27;20410;-83
2022/04/20 09:42:37;;;;;;;4.30;1.90;;;34.40;24.40;;;;;;5120180;27;20442;-81
2022/04/20 09:45:07;;;;;;;2.93;1.67;;;34.40;23.60;;;;;;5120202;27;20419;-82
2022/04/20 09:50:24;;;;;;;3.40;1.90;;;35.80;23.40;;;;;;5139085;27;20429;-80
2022/04/20 09:52:54;;;;;;;2.50;1.50;;;35.90;23.40;;;;;;5120045;27;20858;-81
2022/04/20 09:55:46;;;;;;;2.97;1.97;;;36.10;22.90;;;;;;5119516;27;20449;-80
2022/04/20 09:58:20;;;;;;;3.00;1.80;;;36.50;23.40;;;;;;5115215;27;20792;-79
2022/04/20 10:00:51;;;;;;;2.87;1.67;;;35.90;23.10;;;;;;5119396;27;20505;-80
2022/04/20 10:03:27;;;;;;;3.13;2.20;;;36.40;21.90;;;;;;5119292;27;20411;-80
2022/04/20 10:05:55;;;;;;;3.17;1.77;;;36.10;22.30;;;;;;5119273;27;20502;-80
2022/04/20 10:08:21;;;;;;;2.73;1.50;;;36.10;22.10;;;;;;5119422;27;20413;-80
2022/04/20 10:10:48;;;;;;;2.80;1.77;;;36.50;22.80;;;;;;5121076;27;20414;-82
2022/04/20 10:13:15;;;;;;;3.07;1.73;;;36.70;22.00;;;;;;5121983;27;20410;-82
2022/04/20 10:18:29;;;;;;;2.97;1.67;;;37.60;21.80;;;;;;5140012;27;20947;-82
2022/04/20 10:20:57;;;;;;;3.00;1.67;;;38.20;22.40;;;;;;5122155;27;20434;-81
2022/04/20 10:23:24;;;;;;;3.43;1.90;;;38.30;21.80;;;;;;5121817;27;20921;-81
2022/04/20 10:25:51;;;;;;;2.67;1.67;;;37.60;21.60;;;;;;5121354;27;20945;-82
2022/04/20 10:28:42;;;;;;;2.60;1.60;;;38.00;21.90;;;;;;5120979;27;20414;-82
2022/04/20 10:31:46;;;;;;;2.67;1.53;;;38.60;21.70;;;;;;5121531;27;20414;-82
2022/04/20 10:34:17;;;;;;;2.70;1.97;;;38.60;21.30;;;;;;5121640;27;20410;-83
2022/04/20 10:36:59;;;;;;;2.80;1.80;;;38.50;20.40;;;;;;5119562;27;20472;-82
2022/04/20 10:39:26;;;;;;;2.43;1.50;;;38.40;20.00;;;;;;5120025;27;20414;-80
2022/04/20 10:42:11;;;;;;;2.50;1.50;;;38.50;21.00;;;;;;5120453;27;20425;-79
2022/04/20 10:44:55;;;;;;;2.80;1.80;;;38.70;21.40;;;;;;5121054;27;20418;-82
2022/04/20 10:47:22;;;;;;;2.50;1.40;;;38.40;20.70;;;;;;5120157;27;20487;-82
2022/04/20 10:49:50;;;;;;;2.93;1.80;;;37.70;20.30;;;;;;5120338;27;20483;-81
2022/04/20 10:52:30;;;;;;;2.70;1.80;;;37.20;20.80;;;;;;5119787;27;20422;-82
2022/04/20 10:54:56;;;;;;;3.53;2.00;;;37.80;21.10;;;;;;5120202;27;20429;-81
2022/04/20 10:57:39;;;;;;;3.80;1.97;;;37.70;20.70;;;;;;5120337;27;20430;-80
2022/04/20 11:00:20;;;;;;;3.30;1.67;;;37.50;20.90;;;;;;5120294;27;20498;-81
2022/04/20 11:02:50;;;;;;;2.40;1.57;;;37.50;22.30;;;;;;5120602;27;20422;-80
2022/04/20 11:05:23;;;;;;;4.00;1.40;;;36.80;21.80;;;;;;5120369;27;20433;-81
2022/04/20 11:08:12;;;;;;;2.70;1.90;;;37.00;22.30;;;;;;5119967;27;20419;-81
2022/04/20 11:10:43;;;;;;;3.30;1.40;;;37.50;22.20;;;;;;5120280;27;20448;-79
2022/04/20 11:19:05;;;;;;;2.40;1.50;;;37.00;21.20;;;;;;5136442;22;20576;-80
2022/04/20 11:21:31;;;;;;;2.70;1.70;;;37.30;20.60;;;;;;5079891;28;20774;-79
2022/04/20 11:24:05;;;;;;;4.00;1.50;;;37.40;20.20;;;;;;5079716;28;20405;-80
2022/04/20 11:26:41;;;;;;;3.17;1.70;;;37.50;21.10;;;;;;5078686;28;20504;-80
2022/04/20 11:29:11;;;;;;;2.50;1.50;;;38.00;20.90;;;;;;5078844;28;20413;-80
2022/04/20 11:31:42;;;;;;;2.87;1.90;;;37.70;20.80;;;;;;5079311;28;20422;-80
2022/04/20 11:34:08;;;;;;;2.90;1.43;;;36.50;21.00;;;;;;5079188;28;20416;-79
2022/04/20 11:36:40;;;;;;;3.47;1.53;;;36.50;21.70;;;;;;5077996;28;20474;-80
2022/04/20 11:39:09;;;;;;;2.37;1.33;;;37.30;20.90;;;;;;5078663;28;20508;-79
2022/04/20 11:41:35;;;;;;;4.43;1.87;;;37.40;21.40;;;;;;5078412;28;20419;-80
2022/04/20 11:44:04;;;;;;;2.77;1.60;;;36.60;20.90;;;;;;5078422;28;20409;-79
2022/04/20 11:46:31;;;;;;;3.00;1.40;;;36.50;21.20;;;;;;5078419;28;20821;-80
2022/04/20 11:48:58;;;;;;;2.67;1.60;;;36.70;21.50;;;;;;5078281;28;20504;-80
2022/04/20 11:51:29;;;;;;;3.27;1.70;;;36.90;21.10;;;;;;5077828;28;20477;-79
2022/04/20 11:53:55;;;;;;;3.10;1.50;;;37.10;20.60;;;;;;5077821;28;20439;-79
2022/04/20 11:56:33;;;;;;;2.40;1.40;;;36.80;20.50;;;;;;5077524;28;20890;-80
2022/04/20 11:59:00;;;;;;;3.50;1.40;;;35.30;21.70;;;;;;5077784;28;20449;-79
2022/04/20 12:01:26;;;;;;;3.13;1.50;;;34.10;22.90;;;;;;5077641;28;20420;-80
2022/04/20 12:03:53;;;;;;;3.00;1.40;;;34.20;21.60;;;;;;5077542;28;20436;-79
2022/04/20 12:06:24;;;;;;;3.00;1.70;;;33.10;22.70;;;;;;5076811;28;20446;-79
2022/04/20 12:08:53;;;;;;;2.23;1.47;;;33.70;22.90;;;;;;5076582;28;20450;-79
2022/04/20 12:11:19;;;;;;;2.87;1.77;;;34.50;23.10;;;;;;5077192;28;20523;-79
2022/04/20 12:13:45;;;;;;;2.70;1.53;;;34.40;23.30;;;;;;5077207;28;20927;-79
2022/04/20 12:16:13;;;;;;;2.47;1.63;;;34.80;22.70;;;;;;5076452;28;20460;-79
2022/04/20 12:18:45;;;;;;;3.10;1.77;;;34.50;22.30;;;;;;5076010;28;20190;-79
2022/04/20 12:21:40;;;;;;;2.43;1.40;;;35.10;22.40;;;;;;5076063;28;20424;-80
2022/04/20 12:24:10;;;;;;;2.63;1.43;;;36.30;21.70;;;;;;5077081;28;20408;-79
2022/04/20 12:26:41;;;;;;;2.57;1.60;;;37.00;21.30;;;;;;5072226;28;20455;-80
2022/04/20 12:29:08;;;;;;;2.80;1.40;;;38.20;20.40;;;;;;5074987;28;20426;-81
2022/04/20 12:31:37;;;;;;;2.70;1.90;;;37.70;20.50;;;;;;5055632;28;20508;-82
2022/04/20 12:34:08;;;;;;;2.10;1.20;;;37.40;20.80;;;;;;5055348;28;20483;-80
2022/04/20 12:37:07;;;;;;;2.57;1.50;;;36.90;20.70;;;;;;5056437;28;20518;-80
2022/04/20 12:39:39;;;;;;;2.97;1.60;;;37.40;21.10;;;;;;5036938;28;20763;-81
2022/04/20 12:42:08;;;;;;;6.50;1.60;;;36.20;21.30;;;;;;5054315;28;20421;-80
2022/04/20 12:44:37;;;;;;;2.57;1.50;;;35.30;22.70;;;;;;5054058;28;20447;-79
2022/04/20 12:47:11;;;;;;;2.67;1.60;;;35.30;22.20;;;;;;5054123;28;20476;-81
2022/04/20 12:49:48;;;;;;;2.30;1.40;;;34.30;22.30;;;;;;5055812;28;20428;-79
2022/04/20 12:52:15;;;;;;;2.90;1.50;;;34.40;22.90;;;;;;5053865;28;20427;-79
2022/04/20 12:54:58;;;;;;;2.83;1.33;;;35.70;23.10;;;;;;5055042;28;20428;-80
2022/04/20 13:03:15;;;;;;;2.53;1.60;;;34.10;23.40;;;;;;5091827;28;20803;-80
2022/04/20 13:05:45;;;;;;;4.37;1.80;;;33.70;23.90;;;;;;5083385;28;20454;-80
2022/04/20 13:08:13;;;;;;;2.60;1.70;;;33.60;23.30;;;;;;5082920;28;20427;-81
2022/04/20 13:10:45;;;;;;;2.63;1.60;;;34.10;23.30;;;;;;5066965;28;20848;-80
2022/04/20 13:13:11;;;;;;;2.97;1.80;;;34.30;23.60;;;;;;5067403;28;20833;-80
2022/04/20 13:15:37;;;;;;;3.20;1.60;;;35.40;24.50;;;;;;5065659;28;20473;-80
2022/04/20 13:18:04;;;;;;;3.27;1.70;;;35.80;23.10;;;;;;5065299;28;20183;-81
2022/04/20 13:20:31;;;;;;;2.40;1.63;;;35.90;23.20;;;;;;5065023;28;20802;-80
2022/04/20 13:22:57;;;;;;;3.20;1.80;;;35.70;22.80;;;;;;5064393;28;20474;-82
2022/04/20 13:28:08;;;;;;;2.10;1.27;;;36.30;22.40;;;;;;5081599;28;20416;-81